sensor_id;sensor_type;location;lat;lon;timestamp;temperature;humidity
1413;DHT22;701;52.526;13.408;2022-07-22T00:02:17;22.50;27.80
1413;DHT22;701;52.526;13.408;2022-07-22T00:04:42;22.40;27.80
1413;DHT22;701;52.526;13.408;2022-07-22T00:07:08;22.40;27.90
1413;DHT22;701;52.526;13.408;2022-07-22T00:09:33;22.40;28.00
1413;DHT22;701;52.526;13.408;2022-07-22T00:11:59;22.40;28.00
1413;DHT22;701;52.526;13.408;2022-07-22T00:14:25;22.40;27.80
1413;DHT22;701;52.526;13.408;2022-07-22T00:16:51;22.40;27.80
1413;DHT22;701;52.526;13.408;2022-07-22T00:19:16;22.50;27.70
1413;DHT22;701;52.526;13.408;2022-07-22T00:21:42;22.50;27.50
1413;DHT22;701;52.526;13.408;2022-07-22T00:24:08;22.50;27.10
1413;DHT22;701;52.526;13.408;2022-07-22T00:26:34;22.50;26.90
1413;DHT22;701;52.526;13.408;2022-07-22T00:28:59;22.50;26.60
1413;DHT22;701;52.526;13.408;2022-07-22T00:31:25;22.60;26.30
1413;DHT22;701;52.526;13.408;2022-07-22T00:33:50;22.60;26.10
1413;DHT22;701;52.526;13.408;2022-07-22T00:36:16;22.60;26.30
1413;DHT22;701;52.526;13.408;2022-07-22T00:38:41;22.60;25.70
1413;DHT22;701;52.526;13.408;2022-07-22T00:41:07;22.60;25.30
1413;DHT22;701;52.526;13.408;2022-07-22T00:43:57;22.60;25.30
1413;DHT22;701;52.526;13.408;2022-07-22T00:46:24;22.60;25.30
1413;DHT22;701;52.526;13.408;2022-07-22T00:48:50;22.60;25.30
1413;DHT22;701;52.526;13.408;2022-07-22T00:51:17;22.60;25.30
1413;DHT22;701;52.526;13.408;2022-07-22T00:53:44;22.60;25.30
1413;DHT22;701;52.526;13.408;2022-07-22T00:56:10;22.60;25.30
1413;DHT22;701;52.526;13.408;2022-07-22T00:58:36;22.60;25.30
1413;DHT22;701;52.526;13.408;2022-07-22T01:01:03;22.60;25.30
1413;DHT22;701;52.526;13.408;2022-07-22T01:03:29;22.60;25.30
1413;DHT22;701;52.526;13.408;2022-07-22T01:05:54;22.50;25.20
1413;DHT22;701;52.526;13.408;2022-07-22T01:08:20;22.50;25.20
1413;DHT22;701;52.526;13.408;2022-07-22T01:10:46;22.50;25.20
1413;DHT22;701;52.526;13.408;2022-07-22T01:13:11;22.50;25.20
1413;DHT22;701;52.526;13.408;2022-07-22T01:15:37;22.50;25.20
1413;DHT22;701;52.526;13.408;2022-07-22T01:18:03;22.40;25.20
1413;DHT22;701;52.526;13.408;2022-07-22T01:20:29;22.40;25.20
1413;DHT22;701;52.526;13.408;2022-07-22T01:22:55;22.40;25.20
1413;DHT22;701;52.526;13.408;2022-07-22T01:25:20;22.40;25.20
1413;DHT22;701;52.526;13.408;2022-07-22T01:27:46;22.40;25.20
1413;DHT22;701;52.526;13.408;2022-07-22T01:30:12;22.30;25.30
1413;DHT22;701;52.526;13.408;2022-07-22T01:32:37;22.30;25.30
1413;DHT22;701;52.526;13.408;2022-07-22T01:35:03;22.30;25.40
1413;DHT22;701;52.526;13.408;2022-07-22T01:37:31;22.20;25.40
1413;DHT22;701;52.526;13.408;2022-07-22T01:39:58;22.20;25.50
1413;DHT22;701;52.526;13.408;2022-07-22T01:42:23;22.20;25.60
1413;DHT22;701;52.526;13.408;2022-07-22T01:44:49;22.10;25.60
1413;DHT22;701;52.526;13.408;2022-07-22T01:47:14;22.10;25.70
1413;DHT22;701;52.526;13.408;2022-07-22T01:49:40;22.10;25.80
1413;DHT22;701;52.526;13.408;2022-07-22T01:52:06;22.10;25.90
1413;DHT22;701;52.526;13.408;2022-07-22T01:54:31;22.10;25.90
1413;DHT22;701;52.526;13.408;2022-07-22T01:56:57;22.00;26.10
1413;DHT22;701;52.526;13.408;2022-07-22T01:59:22;22.00;26.30
1413;DHT22;701;52.526;13.408;2022-07-22T02:01:48;22.00;26.30
1413;DHT22;701;52.526;13.408;2022-07-22T02:04:14;21.90;26.40
1413;DHT22;701;52.526;13.408;2022-07-22T02:06:40;21.90;26.50
1413;DHT22;701;52.526;13.408;2022-07-22T02:09:07;21.90;26.60
1413;DHT22;701;52.526;13.408;2022-07-22T02:11:33;21.90;26.80
1413;DHT22;701;52.526;13.408;2022-07-22T02:13:58;21.80;26.90
1413;DHT22;701;52.526;13.408;2022-07-22T02:16:24;21.80;26.90
1413;DHT22;701;52.526;13.408;2022-07-22T02:18:50;21.70;27.20
1413;DHT22;701;52.526;13.408;2022-07-22T02:21:16;21.70;27.30
1413;DHT22;701;52.526;13.408;2022-07-22T02:23:42;21.60;27.40
1413;DHT22;701;52.526;13.408;2022-07-22T02:26:07;21.60;27.60
1413;DHT22;701;52.526;13.408;2022-07-22T02:28:33;21.50;27.80
1413;DHT22;701;52.526;13.408;2022-07-22T02:30:59;21.50;28.20
1413;DHT22;701;52.526;13.408;2022-07-22T02:33:24;21.50;28.10
1413;DHT22;701;52.526;13.408;2022-07-22T02:35:53;21.40;28.20
1413;DHT22;701;52.526;13.408;2022-07-22T02:38:18;21.40;28.20
1413;DHT22;701;52.526;13.408;2022-07-22T02:40:44;21.40;28.40
1413;DHT22;701;52.526;13.408;2022-07-22T02:43:09;21.30;28.70
1413;DHT22;701;52.526;13.408;2022-07-22T02:45:35;21.20;28.80
1413;DHT22;701;52.526;13.408;2022-07-22T02:48:00;21.20;29.10
1413;DHT22;701;52.526;13.408;2022-07-22T02:50:26;21.20;29.30
1413;DHT22;701;52.526;13.408;2022-07-22T02:52:52;21.10;29.50
1413;DHT22;701;52.526;13.408;2022-07-22T02:55:18;21.10;29.50
1413;DHT22;701;52.526;13.408;2022-07-22T02:57:44;21.10;30.30
1413;DHT22;701;52.526;13.408;2022-07-22T03:00:12;21.10;29.90
1413;DHT22;701;52.526;13.408;2022-07-22T03:02:38;21.10;30.00
1413;DHT22;701;52.526;13.408;2022-07-22T03:05:05;21.00;30.10
1413;DHT22;701;52.526;13.408;2022-07-22T03:07:31;21.00;30.10
1413;DHT22;701;52.526;13.408;2022-07-22T03:09:57;21.00;30.40
1413;DHT22;701;52.526;13.408;2022-07-22T03:12:22;21.00;30.40
1413;DHT22;701;52.526;13.408;2022-07-22T03:14:48;21.00;30.40
1413;DHT22;701;52.526;13.408;2022-07-22T03:17:14;21.00;30.40
1413;DHT22;701;52.526;13.408;2022-07-22T03:19:40;20.90;30.40
1413;DHT22;701;52.526;13.408;2022-07-22T03:22:05;20.90;30.50
1413;DHT22;701;52.526;13.408;2022-07-22T03:24:31;20.90;30.70
1413;DHT22;701;52.526;13.408;2022-07-22T03:26:57;20.90;30.80
1413;DHT22;701;52.526;13.408;2022-07-22T03:29:22;20.80;31.00
1413;DHT22;701;52.526;13.408;2022-07-22T03:31:48;20.80;31.00
1413;DHT22;701;52.526;13.408;2022-07-22T03:34:13;20.70;31.50
1413;DHT22;701;52.526;13.408;2022-07-22T03:36:39;20.70;31.50
1413;DHT22;701;52.526;13.408;2022-07-22T03:39:04;20.70;31.50
1413;DHT22;701;52.526;13.408;2022-07-22T03:41:30;20.60;31.60
1413;DHT22;701;52.526;13.408;2022-07-22T03:43:56;20.60;31.90
1413;DHT22;701;52.526;13.408;2022-07-22T03:46:21;20.60;32.10
1413;DHT22;701;52.526;13.408;2022-07-22T03:48:47;20.60;32.30
1413;DHT22;701;52.526;13.408;2022-07-22T03:51:12;20.60;32.70
1413;DHT22;701;52.526;13.408;2022-07-22T03:53:38;20.60;32.90
1413;DHT22;701;52.526;13.408;2022-07-22T03:56:04;20.60;33.20
1413;DHT22;701;52.526;13.408;2022-07-22T03:58:30;20.60;33.30
1413;DHT22;701;52.526;13.408;2022-07-22T04:00:56;20.70;33.10
1413;DHT22;701;52.526;13.408;2022-07-22T04:03:21;20.80;33.10
1413;DHT22;701;52.526;13.408;2022-07-22T04:05:47;20.90;32.80
1413;DHT22;701;52.526;13.408;2022-07-22T04:08:13;20.90;32.50
1413;DHT22;701;52.526;13.408;2022-07-22T04:10:39;21.00;32.30
1413;DHT22;701;52.526;13.408;2022-07-22T04:13:05;21.10;32.10
1413;DHT22;701;52.526;13.408;2022-07-22T04:15:30;21.10;31.80
1413;DHT22;701;52.526;13.408;2022-07-22T04:17:56;21.20;31.90
1413;DHT22;701;52.526;13.408;2022-07-22T04:20:23;21.20;31.90
1413;DHT22;701;52.526;13.408;2022-07-22T04:22:48;21.30;31.50
1413;DHT22;701;52.526;13.408;2022-07-22T04:25:14;21.30;31.30
1413;DHT22;701;52.526;13.408;2022-07-22T04:27:40;21.40;30.90
1413;DHT22;701;52.526;13.408;2022-07-22T04:30:06;21.40;30.80
1413;DHT22;701;52.526;13.408;2022-07-22T04:32:32;21.50;30.60
1413;DHT22;701;52.526;13.408;2022-07-22T04:34:58;21.50;30.30
1413;DHT22;701;52.526;13.408;2022-07-22T04:37:23;21.60;30.10
1413;DHT22;701;52.526;13.408;2022-07-22T04:39:49;21.60;30.00
1413;DHT22;701;52.526;13.408;2022-07-22T04:42:15;21.70;29.80
1413;DHT22;701;52.526;13.408;2022-07-22T04:44:40;21.80;29.60
1413;DHT22;701;52.526;13.408;2022-07-22T04:47:06;21.80;29.30
1413;DHT22;701;52.526;13.408;2022-07-22T04:49:31;21.90;29.10
1413;DHT22;701;52.526;13.408;2022-07-22T04:51:57;21.90;28.90
1413;DHT22;701;52.526;13.408;2022-07-22T04:54:23;22.00;28.60
1413;DHT22;701;52.526;13.408;2022-07-22T04:56:49;22.00;28.50
1413;DHT22;701;52.526;13.408;2022-07-22T04:59:14;22.00;28.50
1413;DHT22;701;52.526;13.408;2022-07-22T05:01:40;22.00;28.50
1413;DHT22;701;52.526;13.408;2022-07-22T05:04:05;22.00;28.50
1413;DHT22;701;52.526;13.408;2022-07-22T05:06:31;22.00;28.50
1413;DHT22;701;52.526;13.408;2022-07-22T05:08:57;22.00;28.50
1413;DHT22;701;52.526;13.408;2022-07-22T05:11:22;22.10;28.40
1413;DHT22;701;52.526;13.408;2022-07-22T05:13:48;22.10;28.20
1413;DHT22;701;52.526;13.408;2022-07-22T05:16:14;22.10;28.00
1413;DHT22;701;52.526;13.408;2022-07-22T05:18:39;22.20;28.00
1413;DHT22;701;52.526;13.408;2022-07-22T05:21:05;22.20;27.70
1413;DHT22;701;52.526;13.408;2022-07-22T05:23:31;22.30;27.60
1413;DHT22;701;52.526;13.408;2022-07-22T05:25:57;22.40;27.20
1413;DHT22;701;52.526;13.408;2022-07-22T05:28:23;22.60;27.00
1413;DHT22;701;52.526;13.408;2022-07-22T05:30:49;22.60;26.50
1413;DHT22;701;52.526;13.408;2022-07-22T05:33:15;22.70;26.20
1413;DHT22;701;52.526;13.408;2022-07-22T05:35:40;22.70;26.00
1413;DHT22;701;52.526;13.408;2022-07-22T05:38:06;22.80;25.80
1413;DHT22;701;52.526;13.408;2022-07-22T05:40:32;22.90;25.50
1413;DHT22;701;52.526;13.408;2022-07-22T05:42:58;23.00;25.60
1413;DHT22;701;52.526;13.408;2022-07-22T05:45:24;23.00;25.30
1413;DHT22;701;52.526;13.408;2022-07-22T05:47:49;23.00;25.00
1413;DHT22;701;52.526;13.408;2022-07-22T05:50:15;23.00;24.80
1413;DHT22;701;52.526;13.408;2022-07-22T05:52:41;23.00;24.90
1413;DHT22;701;52.526;13.408;2022-07-22T05:55:08;23.10;24.70
1413;DHT22;701;52.526;13.408;2022-07-22T05:57:33;23.20;24.50
1413;DHT22;701;52.526;13.408;2022-07-22T05:59:59;23.30;24.40
1413;DHT22;701;52.526;13.408;2022-07-22T06:02:25;23.40;24.20
1413;DHT22;701;52.526;13.408;2022-07-22T06:04:50;23.40;23.90
1413;DHT22;701;52.526;13.408;2022-07-22T06:07:16;23.50;23.80
1413;DHT22;701;52.526;13.408;2022-07-22T06:09:43;23.60;23.60
1413;DHT22;701;52.526;13.408;2022-07-22T06:12:08;23.80;23.20
1413;DHT22;701;52.526;13.408;2022-07-22T06:14:34;24.00;22.80
1413;DHT22;701;52.526;13.408;2022-07-22T06:17:02;24.10;22.60
1413;DHT22;701;52.526;13.408;2022-07-22T06:19:27;24.40;22.20
1413;DHT22;701;52.526;13.408;2022-07-22T06:21:55;24.40;21.60
1413;DHT22;701;52.526;13.408;2022-07-22T06:24:20;24.60;21.30
1413;DHT22;701;52.526;13.408;2022-07-22T06:26:46;24.80;21.00
1413;DHT22;701;52.526;13.408;2022-07-22T06:29:12;24.90;20.50
1413;DHT22;701;52.526;13.408;2022-07-22T06:31:37;24.90;20.20
1413;DHT22;701;52.526;13.408;2022-07-22T06:34:03;24.90;19.90
1413;DHT22;701;52.526;13.408;2022-07-22T06:36:31;25.00;19.70
1413;DHT22;701;52.526;13.408;2022-07-22T06:38:57;25.10;19.50
1413;DHT22;701;52.526;13.408;2022-07-22T06:41:22;25.20;19.50
1413;DHT22;701;52.526;13.408;2022-07-22T06:43:48;25.30;19.20
1413;DHT22;701;52.526;13.408;2022-07-22T06:46:14;25.60;18.50
1413;DHT22;701;52.526;13.408;2022-07-22T06:48:39;25.90;17.90
1413;DHT22;701;52.526;13.408;2022-07-22T06:51:05;26.10;17.10
1413;DHT22;701;52.526;13.408;2022-07-22T06:53:32;26.50;16.40
1413;DHT22;701;52.526;13.408;2022-07-22T06:55:58;26.90;16.00
1413;DHT22;701;52.526;13.408;2022-07-22T06:58:23;27.30;15.00
1413;DHT22;701;52.526;13.408;2022-07-22T07:00:49;27.70;13.80
1413;DHT22;701;52.526;13.408;2022-07-22T07:03:14;27.90;13.00
1413;DHT22;701;52.526;13.408;2022-07-22T07:05:40;28.10;12.40
1413;DHT22;701;52.526;13.408;2022-07-22T07:08:06;28.20;11.70
1413;DHT22;701;52.526;13.408;2022-07-22T07:10:31;28.30;11.30
1413;DHT22;701;52.526;13.408;2022-07-22T07:12:58;28.50;11.10
1413;DHT22;701;52.526;13.408;2022-07-22T07:15:24;28.80;10.40
1413;DHT22;701;52.526;13.408;2022-07-22T07:17:50;29.40;10.10
1413;DHT22;701;52.526;13.408;2022-07-22T07:20:16;30.10;8.60
1413;DHT22;701;52.526;13.408;2022-07-22T07:22:42;30.70;7.20
1413;DHT22;701;52.526;13.408;2022-07-22T07:25:08;31.30;6.00
1413;DHT22;701;52.526;13.408;2022-07-22T07:27:34;31.70;4.90
1413;DHT22;701;52.526;13.408;2022-07-22T07:30:01;32.40;3.60
1413;DHT22;701;52.526;13.408;2022-07-22T07:32:27;33.40;2.30
1413;DHT22;701;52.526;13.408;2022-07-22T07:34:53;34.30;1.00
1413;DHT22;701;52.526;13.408;2022-07-22T07:37:19;35.20;1.00
1413;DHT22;701;52.526;13.408;2022-07-22T07:39:44;36.20;1.00
1413;DHT22;701;52.526;13.408;2022-07-22T07:42:10;36.70;1.00
1413;DHT22;701;52.526;13.408;2022-07-22T07:44:35;37.00;1.00
1413;DHT22;701;52.526;13.408;2022-07-22T07:47:01;37.10;1.00
1413;DHT22;701;52.526;13.408;2022-07-22T07:49:27;37.20;1.00
1413;DHT22;701;52.526;13.408;2022-07-22T07:51:53;37.70;1.00
1413;DHT22;701;52.526;13.408;2022-07-22T07:54:19;38.40;1.00
1413;DHT22;701;52.526;13.408;2022-07-22T07:56:45;38.40;1.00
1413;DHT22;701;52.526;13.408;2022-07-22T07:59:10;37.60;1.00
1413;DHT22;701;52.526;13.408;2022-07-22T08:01:36;37.00;1.00
1413;DHT22;701;52.526;13.408;2022-07-22T08:04:02;36.70;1.00
1413;DHT22;701;52.526;13.408;2022-07-22T08:06:28;37.40;1.00
1413;DHT22;701;52.526;13.408;2022-07-22T08:08:53;38.10;1.00
1413;DHT22;701;52.526;13.408;2022-07-22T08:11:19;38.30;1.00
1413;DHT22;701;52.526;13.408;2022-07-22T08:13:44;38.10;1.00
1413;DHT22;701;52.526;13.408;2022-07-22T08:16:10;37.70;1.00
1413;DHT22;701;52.526;13.408;2022-07-22T08:18:36;37.20;1.00
1413;DHT22;701;52.526;13.408;2022-07-22T08:21:02;37.10;1.00
1413;DHT22;701;52.526;13.408;2022-07-22T08:23:27;37.50;1.00
1413;DHT22;701;52.526;13.408;2022-07-22T08:25:53;37.90;1.00
1413;DHT22;701;52.526;13.408;2022-07-22T08:28:18;38.00;1.00
1413;DHT22;701;52.526;13.408;2022-07-22T08:30:44;37.60;1.00
1413;DHT22;701;52.526;13.408;2022-07-22T08:33:10;37.00;1.00
1413;DHT22;701;52.526;13.408;2022-07-22T08:35:36;37.10;1.00
1413;DHT22;701;52.526;13.408;2022-07-22T08:38:01;38.10;1.00
1413;DHT22;701;52.526;13.408;2022-07-22T08:40:27;38.50;1.00
1413;DHT22;701;52.526;13.408;2022-07-22T08:42:54;38.40;1.00
1413;DHT22;701;52.526;13.408;2022-07-22T08:45:20;37.80;1.00
1413;DHT22;701;52.526;13.408;2022-07-22T08:47:50;37.10;1.00
1413;DHT22;701;52.526;13.408;2022-07-22T08:50:16;36.20;1.00
1413;DHT22;701;52.526;13.408;2022-07-22T08:52:42;35.30;1.00
1413;DHT22;701;52.526;13.408;2022-07-22T08:55:08;34.30;1.00
1413;DHT22;701;52.526;13.408;2022-07-22T08:57:34;33.40;1.00
1413;DHT22;701;52.526;13.408;2022-07-22T09:00:10;32.50;1.00
1413;DHT22;701;52.526;13.408;2022-07-22T09:02:40;31.70;1.00
1413;DHT22;701;52.526;13.408;2022-07-22T09:05:08;30.90;1.00
1413;DHT22;701;52.526;13.408;2022-07-22T09:07:36;30.30;1.70
1413;DHT22;701;52.526;13.408;2022-07-22T09:10:07;29.80;2.30
1413;DHT22;701;52.526;13.408;2022-07-22T09:12:34;29.30;3.60
1413;DHT22;701;52.526;13.408;2022-07-22T09:15:02;29.00;4.20
1413;DHT22;701;52.526;13.408;2022-07-22T09:17:30;28.90;4.70
1413;DHT22;701;52.526;13.408;2022-07-22T09:19:58;29.00;4.80
1413;DHT22;701;52.526;13.408;2022-07-22T09:22:39;29.30;4.50
1413;DHT22;701;52.526;13.408;2022-07-22T09:25:35;29.50;4.20
1413;DHT22;701;52.526;13.408;2022-07-22T09:31:08;29.40;4.40
1413;DHT22;701;52.526;13.408;2022-07-22T09:33:26;29.10;4.70
1413;DHT22;701;52.526;13.408;2022-07-22T09:35:53;28.60;5.50
1413;DHT22;701;52.526;13.408;2022-07-22T09:38:29;28.20;6.40
1413;DHT22;701;52.526;13.408;2022-07-22T09:40:57;27.90;7.20
1413;DHT22;701;52.526;13.408;2022-07-22T09:43:23;27.70;7.90
1413;DHT22;701;52.526;13.408;2022-07-22T09:45:54;27.70;8.30
1413;DHT22;701;52.526;13.408;2022-07-22T09:48:22;27.60;8.50
1413;DHT22;701;52.526;13.408;2022-07-22T09:50:49;27.60;8.50
1413;DHT22;701;52.526;13.408;2022-07-22T09:53:18;27.60;8.60
1413;DHT22;701;52.526;13.408;2022-07-22T09:55:44;27.80;8.20
1413;DHT22;701;52.526;13.408;2022-07-22T09:58:09;28.10;7.80
1413;DHT22;701;52.526;13.408;2022-07-22T10:00:38;28.60;7.10
1413;DHT22;701;52.526;13.408;2022-07-22T10:03:06;29.30;6.10
1413;DHT22;701;52.526;13.408;2022-07-22T10:05:35;29.70;5.10
1413;DHT22;701;52.526;13.408;2022-07-22T10:08:02;30.20;4.50
1413;DHT22;701;52.526;13.408;2022-07-22T10:10:30;30.50;3.90
1413;DHT22;701;52.526;13.408;2022-07-22T10:12:57;30.80;3.30
1413;DHT22;701;52.526;13.408;2022-07-22T10:15:25;30.90;2.90
1413;DHT22;701;52.526;13.408;2022-07-22T10:17:57;31.00;2.90
1413;DHT22;701;52.526;13.408;2022-07-22T10:20:26;31.10;3.00
1413;DHT22;701;52.526;13.408;2022-07-22T10:22:59;31.00;2.90
1413;DHT22;701;52.526;13.408;2022-07-22T10:25:30;30.90;2.90
1413;DHT22;701;52.526;13.408;2022-07-22T10:28:02;30.70;2.80
1413;DHT22;701;52.526;13.408;2022-07-22T10:30:36;30.70;2.70
1413;DHT22;701;52.526;13.408;2022-07-22T10:33:17;30.50;3.10
1413;DHT22;701;52.526;13.408;2022-07-22T10:38:22;30.40;3.40
1413;DHT22;701;52.526;13.408;2022-07-22T10:41:00;30.00;3.90
1413;DHT22;701;52.526;13.408;2022-07-22T10:43:31;29.70;4.50
1413;DHT22;701;52.526;13.408;2022-07-22T10:45:58;29.60;4.90
1413;DHT22;701;52.526;13.408;2022-07-22T10:51:07;29.90;4.50
1413;DHT22;701;52.526;13.408;2022-07-22T10:53:52;30.10;4.30
1413;DHT22;701;52.526;13.408;2022-07-22T10:56:33;30.30;3.50
1413;DHT22;701;52.526;13.408;2022-07-22T10:59:15;30.60;2.80
1413;DHT22;701;52.526;13.408;2022-07-22T11:01:46;30.90;2.90
1413;DHT22;701;52.526;13.408;2022-07-22T11:06:43;31.30;2.20
1413;DHT22;701;52.526;13.408;2022-07-22T11:09:11;31.30;2.10
1413;DHT22;701;52.526;13.408;2022-07-22T11:14:21;31.00;3.00
1413;DHT22;701;52.526;13.408;2022-07-22T11:16:48;30.70;2.80
1413;DHT22;701;52.526;13.408;2022-07-22T11:19:18;30.70;2.80
1413;DHT22;701;52.526;13.408;2022-07-22T11:21:49;30.80;2.80
1413;DHT22;701;52.526;13.408;2022-07-22T11:24:15;30.90;2.90
1413;DHT22;701;52.526;13.408;2022-07-22T11:26:49;30.80;2.80
1413;DHT22;701;52.526;13.408;2022-07-22T11:31:54;30.70;3.20
1413;DHT22;701;52.526;13.408;2022-07-22T11:34:20;30.60;3.30
1413;DHT22;701;52.526;13.408;2022-07-22T11:36:48;30.50;3.20
1413;DHT22;701;52.526;13.408;2022-07-22T11:39:18;30.70;2.80
1413;DHT22;701;52.526;13.408;2022-07-22T11:41:44;31.00;2.90
1413;DHT22;701;52.526;13.408;2022-07-22T11:44:09;31.20;2.70
1413;DHT22;701;52.526;13.408;2022-07-22T11:46:37;31.10;3.00
1413;DHT22;701;52.526;13.408;2022-07-22T11:49:03;31.00;3.00
1413;DHT22;701;52.526;13.408;2022-07-22T11:51:31;30.80;3.40
1413;DHT22;701;52.526;13.408;2022-07-22T11:53:57;30.70;2.80
1413;DHT22;701;52.526;13.408;2022-07-22T11:56:23;30.70;2.70
1413;DHT22;701;52.526;13.408;2022-07-22T11:58:50;30.60;2.80
1413;DHT22;701;52.526;13.408;2022-07-22T12:01:19;30.50;3.10
1413;DHT22;701;52.526;13.408;2022-07-22T12:03:50;30.30;3.40
1413;DHT22;701;52.526;13.408;2022-07-22T12:06:17;30.20;3.50
1413;DHT22;701;52.526;13.408;2022-07-22T12:08:52;30.10;3.70
1413;DHT22;701;52.526;13.408;2022-07-22T12:11:21;30.10;3.90
1413;DHT22;701;52.526;13.408;2022-07-22T12:13:49;30.10;3.90
1413;DHT22;701;52.526;13.408;2022-07-22T12:16:27;30.10;3.80
1413;DHT22;701;52.526;13.408;2022-07-22T12:18:59;30.10;3.50
1413;DHT22;701;52.526;13.408;2022-07-22T12:21:30;30.20;3.10
1413;DHT22;701;52.526;13.408;2022-07-22T12:24:01;30.30;3.00
1413;DHT22;701;52.526;13.408;2022-07-22T12:26:41;30.20;2.80
1413;DHT22;701;52.526;13.408;2022-07-22T12:29:26;30.00;3.20
1413;DHT22;701;52.526;13.408;2022-07-22T12:32:01;30.00;3.30
1413;DHT22;701;52.526;13.408;2022-07-22T12:34:37;30.00;3.40
1413;DHT22;701;52.526;13.408;2022-07-22T12:42:34;29.80;4.20
1413;DHT22;701;52.526;13.408;2022-07-22T12:45:05;29.80;4.30
1413;DHT22;701;52.526;13.408;2022-07-22T12:47:51;29.70;4.30
1413;DHT22;701;52.526;13.408;2022-07-22T12:53:04;29.40;4.80
1413;DHT22;701;52.526;13.408;2022-07-22T12:55:31;29.20;5.00
1413;DHT22;701;52.526;13.408;2022-07-22T12:57:58;29.10;5.20
1413;DHT22;701;52.526;13.408;2022-07-22T13:00:27;28.90;5.30
1413;DHT22;701;52.526;13.408;2022-07-22T13:02:53;28.80;5.70
1413;DHT22;701;52.526;13.408;2022-07-22T13:05:21;28.60;5.70
1413;DHT22;701;52.526;13.408;2022-07-22T13:07:47;28.40;6.00
1413;DHT22;701;52.526;13.408;2022-07-22T13:10:13;28.30;6.10
1413;DHT22;701;52.526;13.408;2022-07-22T13:12:40;28.20;6.40
1413;DHT22;701;52.526;13.408;2022-07-22T13:15:07;28.10;6.50
1413;DHT22;701;52.526;13.408;2022-07-22T13:17:34;28.00;6.30
1413;DHT22;701;52.526;13.408;2022-07-22T13:20:00;27.90;6.50
1413;DHT22;701;52.526;13.408;2022-07-22T13:22:25;27.80;6.70
1413;DHT22;701;52.526;13.408;2022-07-22T13:24:51;27.70;6.80
1413;DHT22;701;52.526;13.408;2022-07-22T13:27:17;27.60;6.90
1413;DHT22;701;52.526;13.408;2022-07-22T13:29:42;27.60;7.10
1413;DHT22;701;52.526;13.408;2022-07-22T13:32:08;27.60;7.30
1413;DHT22;701;52.526;13.408;2022-07-22T13:34:33;27.80;7.10
1413;DHT22;701;52.526;13.408;2022-07-22T13:37:00;27.90;6.70
1413;DHT22;701;52.526;13.408;2022-07-22T13:39:26;28.10;6.40
1413;DHT22;701;52.526;13.408;2022-07-22T13:41:52;28.10;6.20
1413;DHT22;701;52.526;13.408;2022-07-22T13:44:17;28.20;6.00
1413;DHT22;701;52.526;13.408;2022-07-22T13:46:43;28.30;5.60
1413;DHT22;701;52.526;13.408;2022-07-22T13:49:09;28.30;5.60
1413;DHT22;701;52.526;13.408;2022-07-22T13:51:34;28.40;5.60
1413;DHT22;701;52.526;13.408;2022-07-22T13:54:00;28.40;5.50
1413;DHT22;701;52.526;13.408;2022-07-22T13:56:26;28.40;5.30
1413;DHT22;701;52.526;13.408;2022-07-22T13:58:51;28.40;5.10
1413;DHT22;701;52.526;13.408;2022-07-22T14:01:17;28.40;5.00
1413;DHT22;701;52.526;13.408;2022-07-22T14:03:42;28.30;5.20
1413;DHT22;701;52.526;13.408;2022-07-22T14:06:08;28.30;5.20
1413;DHT22;701;52.526;13.408;2022-07-22T14:08:35;28.20;5.20
1413;DHT22;701;52.526;13.408;2022-07-22T14:11:01;28.20;5.40
1413;DHT22;701;52.526;13.408;2022-07-22T14:13:27;28.10;5.50
1413;DHT22;701;52.526;13.408;2022-07-22T14:15:52;28.00;5.50
1413;DHT22;701;52.526;13.408;2022-07-22T14:18:18;28.00;6.00
1413;DHT22;701;52.526;13.408;2022-07-22T14:20:43;28.00;5.40
1413;DHT22;701;52.526;13.408;2022-07-22T14:23:09;28.10;5.50
1413;DHT22;701;52.526;13.408;2022-07-22T14:25:36;28.00;5.40
1413;DHT22;701;52.526;13.408;2022-07-22T14:28:02;28.00;5.30
1413;DHT22;701;52.526;13.408;2022-07-22T14:30:28;27.90;5.30
1413;DHT22;701;52.526;13.408;2022-07-22T14:32:54;27.90;5.40
1413;DHT22;701;52.526;13.408;2022-07-22T14:35:20;27.90;5.40
1413;DHT22;701;52.526;13.408;2022-07-22T14:37:46;28.00;5.20
1413;DHT22;701;52.526;13.408;2022-07-22T14:40:12;28.00;5.30
1413;DHT22;701;52.526;13.408;2022-07-22T14:42:38;28.10;5.00
1413;DHT22;701;52.526;13.408;2022-07-22T14:45:05;28.20;4.70
1413;DHT22;701;52.526;13.408;2022-07-22T14:47:31;28.30;4.50
1413;DHT22;701;52.526;13.408;2022-07-22T14:49:57;28.40;4.10
1413;DHT22;701;52.526;13.408;2022-07-22T14:52:22;28.40;4.00
1413;DHT22;701;52.526;13.408;2022-07-22T14:54:48;28.50;4.00
1413;DHT22;701;52.526;13.408;2022-07-22T14:57:14;28.70;3.90
1413;DHT22;701;52.526;13.408;2022-07-22T14:59:39;28.70;3.70
1413;DHT22;701;52.526;13.408;2022-07-22T15:02:05;28.70;3.60
1413;DHT22;701;52.526;13.408;2022-07-22T15:04:31;28.50;3.80
1413;DHT22;701;52.526;13.408;2022-07-22T15:06:57;28.50;3.90
1413;DHT22;701;52.526;13.408;2022-07-22T15:09:23;28.40;3.90
1413;DHT22;701;52.526;13.408;2022-07-22T15:11:48;28.40;4.00
1413;DHT22;701;52.526;13.408;2022-07-22T15:14:14;28.40;4.00
1413;DHT22;701;52.526;13.408;2022-07-22T15:16:40;28.40;3.90
1413;DHT22;701;52.526;13.408;2022-07-22T15:19:05;28.30;3.90
1413;DHT22;701;52.526;13.408;2022-07-22T15:21:31;28.20;3.90
1413;DHT22;701;52.526;13.408;2022-07-22T15:23:57;28.20;4.20
1413;DHT22;701;52.526;13.408;2022-07-22T15:26:23;28.10;4.40
1413;DHT22;701;52.526;13.408;2022-07-22T15:28:49;27.90;4.50
1413;DHT22;701;52.526;13.408;2022-07-22T15:31:16;27.90;4.60
1413;DHT22;701;52.526;13.408;2022-07-22T15:33:42;27.90;4.70
1413;DHT22;701;52.526;13.408;2022-07-22T15:36:08;27.80;4.60
1413;DHT22;701;52.526;13.408;2022-07-22T15:38:37;27.80;4.70
1413;DHT22;701;52.526;13.408;2022-07-22T15:41:04;27.80;4.80
1413;DHT22;701;52.526;13.408;2022-07-22T15:43:30;27.70;4.90
1413;DHT22;701;52.526;13.408;2022-07-22T15:45:56;27.60;5.10
1413;DHT22;701;52.526;13.408;2022-07-22T15:48:22;27.50;5.20
1413;DHT22;701;52.526;13.408;2022-07-22T15:50:48;27.50;5.20
1413;DHT22;701;52.526;13.408;2022-07-22T15:53:13;27.50;5.20
1413;DHT22;701;52.526;13.408;2022-07-22T15:55:39;27.50;5.20
1413;DHT22;701;52.526;13.408;2022-07-22T15:58:04;27.40;5.10
1413;DHT22;701;52.526;13.408;2022-07-22T16:00:49;27.40;5.10
1413;DHT22;701;52.526;13.408;2022-07-22T16:03:14;27.40;5.20
1413;DHT22;701;52.526;13.408;2022-07-22T16:05:40;27.30;5.30
1413;DHT22;701;52.526;13.408;2022-07-22T16:08:06;27.30;5.20
1413;DHT22;701;52.526;13.408;2022-07-22T16:10:31;27.30;5.30
1413;DHT22;701;52.526;13.408;2022-07-22T16:12:57;27.30;5.20
1413;DHT22;701;52.526;13.408;2022-07-22T16:15:23;27.20;5.40
1413;DHT22;701;52.526;13.408;2022-07-22T16:17:49;27.20;5.40
1413;DHT22;701;52.526;13.408;2022-07-22T16:20:14;27.20;5.40
1413;DHT22;701;52.526;13.408;2022-07-22T16:22:40;27.30;5.50
1413;DHT22;701;52.526;13.408;2022-07-22T16:25:06;27.30;5.40
1413;DHT22;701;52.526;13.408;2022-07-22T16:27:32;27.40;5.10
1413;DHT22;701;52.526;13.408;2022-07-22T16:29:58;27.40;5.10
1413;DHT22;701;52.526;13.408;2022-07-22T16:32:23;27.40;5.10